createdAt,value
2017-01-27T00:00:33.198Z,0
2017-01-27T00:01:39.353Z,0
2017-01-27T00:02:45.526Z,0
2017-01-27T00:03:51.708Z,0
2017-01-27T00:04:56.905Z,0
2017-01-27T00:06:02.097Z,0
2017-01-27T00:07:07.291Z,0
2017-01-27T00:08:12.493Z,0
2017-01-27T00:09:15.756Z,0
2017-01-27T00:10:21.941Z,0
2017-01-27T00:11:27.138Z,0
2017-01-27T00:12:33.301Z,0
2017-01-27T00:13:37.496Z,0
2017-01-27T00:14:43.691Z,0
2017-01-27T00:15:49.846Z,0
2017-01-27T00:16:55.037Z,0
2017-01-27T00:18:00.230Z,0
2017-01-27T00:19:05.416Z,0
2017-01-27T00:20:11.580Z,0
2017-01-27T00:21:16.799Z,0
2017-01-27T00:22:22.956Z,0
2017-01-27T00:23:29.117Z,0
2017-01-27T00:24:34.336Z,0
2017-01-27T00:25:40.489Z,0
2017-01-27T00:26:44.717Z,0
2017-01-27T00:27:49.988Z,0
2017-01-27T00:28:55.183Z,0
2017-01-27T00:29:59.412Z,0
2017-01-27T00:31:02.678Z,0
2017-01-27T00:32:07.869Z,0
2017-01-27T00:33:14.054Z,0
2017-01-27T00:34:19.311Z,0
2017-01-27T00:35:25.467Z,0
2017-01-27T00:36:28.708Z,0
2017-01-27T00:37:33.873Z,0
2017-01-27T00:38:39.071Z,0
2017-01-27T00:39:45.233Z,0
2017-01-27T00:40:49.460Z,0
2017-01-27T00:41:54.655Z,0
2017-01-27T00:42:58.871Z,0
2017-01-27T00:44:04.183Z,0
2017-01-27T00:45:09.348Z,0
2017-01-27T00:46:15.516Z,0
2017-01-27T00:47:19.705Z,0
2017-01-27T00:48:24.927Z,0
2017-01-27T00:49:30.094Z,0
2017-01-27T00:50:36.303Z,0
2017-01-27T00:51:42.451Z,0
2017-01-27T00:52:47.649Z,0
2017-01-27T00:53:52.802Z,0
2017-01-27T00:54:58.025Z,0
2017-01-27T00:56:04.203Z,0
2017-01-27T00:57:09.383Z,0
2017-01-27T00:58:15.544Z,0
2017-01-27T00:59:20.763Z,0
2017-01-27T01:00:26.905Z,0
2017-01-27T01:01:32.098Z,0
2017-01-27T01:02:37.287Z,0
2017-01-27T01:03:42.486Z,0
2017-01-27T01:04:48.642Z,0
2017-01-27T01:05:54.796Z,0
2017-01-27T01:06:59.993Z,0
2017-01-27T01:08:05.186Z,0
2017-01-27T01:09:11.348Z,0
2017-01-27T01:10:16.547Z,0
2017-01-27T01:11:22.718Z,0
2017-01-27T01:12:28.898Z,0
2017-01-27T01:13:34.046Z,0
2017-01-27T01:14:40.258Z,0
2017-01-27T01:15:46.382Z,0
2017-01-27T01:16:52.547Z,0
2017-01-27T01:17:57.760Z,0
2017-01-27T01:19:02.947Z,0
2017-01-27T01:20:09.145Z,0
2017-01-27T01:21:14.413Z,0
2017-01-27T01:22:17.578Z,0
2017-01-27T01:23:23.757Z,0
2017-01-27T01:24:28.945Z,0
2017-01-27T01:25:34.139Z,0
2017-01-27T01:26:40.327Z,0
2017-01-27T01:27:46.488Z,0
2017-01-27T01:28:52.650Z,0
2017-01-27T01:29:58.813Z,0
2017-01-27T01:31:03.011Z,0
2017-01-27T01:32:08.204Z,0
2017-01-27T01:33:12.501Z,0
2017-01-27T01:34:16.692Z,0
2017-01-27T01:35:21.880Z,0
2017-01-27T01:36:26.096Z,0
2017-01-27T01:37:32.290Z,0
2017-01-27T01:38:36.494Z,0
2017-01-27T01:39:41.690Z,0
2017-01-27T01:40:47.862Z,0
2017-01-27T01:41:51.111Z,0
2017-01-27T01:42:57.276Z,0
2017-01-27T01:44:02.456Z,0
2017-01-27T01:45:07.644Z,0
2017-01-27T01:46:13.839Z,0
2017-01-27T01:47:18.979Z,0
2017-01-27T01:48:25.244Z,0
2017-01-27T01:49:30.438Z,0
2017-01-27T01:50:36.602Z,0
2017-01-27T01:51:41.793Z,0
2017-01-27T01:52:47.952Z,0
2017-01-27T01:53:53.148Z,0
2017-01-27T01:54:58.342Z,0
2017-01-27T01:56:04.507Z,0
2017-01-27T01:57:10.667Z,0
2017-01-27T01:58:14.964Z,0
2017-01-27T01:59:19.090Z,0
2017-01-27T02:00:25.365Z,0
2017-01-27T02:01:29.591Z,0
2017-01-27T02:02:32.855Z,0
2017-01-27T02:03:39.011Z,0
2017-01-27T02:04:43.200Z,0
2017-01-27T02:05:48.437Z,0
2017-01-27T02:06:54.573Z,0
2017-01-27T02:07:59.773Z,0
2017-01-27T02:09:05.938Z,0
2017-01-27T02:10:12.137Z,0
2017-01-27T02:11:17.326Z,0
2017-01-27T02:12:23.483Z,0
2017-01-27T02:13:27.728Z,0
2017-01-27T02:14:32.933Z,0
2017-01-27T02:15:37.216Z,0
2017-01-27T02:16:41.373Z,0
2017-01-27T02:17:47.544Z,0
2017-01-27T02:18:52.706Z,0
2017-01-27T02:19:57.908Z,0
2017-01-27T02:21:03.100Z,0
2017-01-27T02:22:09.271Z,0
2017-01-27T02:23:15.425Z,0
2017-01-27T02:24:21.584Z,0
2017-01-27T02:25:27.778Z,0
2017-01-27T02:26:32.992Z,0
2017-01-27T02:27:38.216Z,0
2017-01-27T02:28:44.380Z,0
2017-01-27T02:29:49.547Z,0
2017-01-27T02:30:55.706Z,0
2017-01-27T02:32:01.908Z,0
2017-01-27T02:33:05.143Z,0
2017-01-27T02:34:11.304Z,0
2017-01-27T02:35:17.458Z,0
2017-01-27T02:36:22.658Z,0
2017-01-27T02:37:27.861Z,0
2017-01-27T02:38:34.026Z,0
2017-01-27T02:39:40.200Z,0
2017-01-27T02:40:46.351Z,0
2017-01-27T02:41:50.619Z,0
2017-01-27T02:42:56.741Z,0
2017-01-27T02:44:03.012Z,0
2017-01-27T02:45:07.233Z,0
2017-01-27T02:46:12.397Z,0
2017-01-27T02:47:18.567Z,0
2017-01-27T02:48:22.908Z,0
2017-01-27T02:49:26.068Z,0
2017-01-27T02:50:31.309Z,0
2017-01-27T02:51:36.506Z,0
2017-01-27T02:52:40.731Z,0
2017-01-27T02:53:46.892Z,0
2017-01-27T02:54:52.095Z,0
2017-01-27T02:55:57.274Z,0
2017-01-27T02:57:02.535Z,0
2017-01-27T02:58:08.654Z,0
2017-01-27T02:59:14.817Z,0
2017-01-27T03:00:19.019Z,0
2017-01-27T03:01:25.183Z,0
2017-01-27T03:02:30.348Z,0
2017-01-27T03:03:36.514Z,0
2017-01-27T03:04:41.714Z,0
2017-01-27T03:05:46.907Z,0
2017-01-27T03:06:52.097Z,0
2017-01-27T03:07:58.260Z,0
2017-01-27T03:09:02.461Z,0
2017-01-27T03:10:06.689Z,0
2017-01-27T03:11:12.849Z,0
2017-01-27T03:12:19.097Z,0
2017-01-27T03:13:24.299Z,0
2017-01-27T03:14:29.496Z,0
2017-01-27T03:15:34.717Z,0
2017-01-27T03:16:40.867Z,0
2017-01-27T03:17:47.026Z,0
2017-01-27T03:18:50.343Z,0
2017-01-27T03:19:52.661Z,0
2017-01-27T03:20:57.771Z,0
2017-01-27T03:22:03.043Z,0
2017-01-27T03:23:08.407Z,0
2017-01-27T03:24:14.589Z,0
2017-01-27T03:25:20.729Z,0
2017-01-27T03:26:25.921Z,0
2017-01-27T03:27:31.123Z,0
2017-01-27T03:28:36.308Z,0
2017-01-27T03:29:40.537Z,0
2017-01-27T03:30:45.725Z,0
2017-01-27T03:31:50.919Z,0
2017-01-27T03:32:57.181Z,0
2017-01-27T03:34:03.384Z,0
2017-01-27T03:35:07.560Z,0
2017-01-27T03:36:11.790Z,0
2017-01-27T03:37:17.959Z,0
2017-01-27T03:38:22.275Z,0
2017-01-27T03:39:28.436Z,0
2017-01-27T03:40:33.641Z,0
2017-01-27T03:41:38.840Z,0
2017-01-27T03:42:43.078Z,0
2017-01-27T03:43:49.307Z,0
2017-01-27T03:44:55.471Z,0
2017-01-27T03:46:01.632Z,0
2017-01-27T03:47:07.797Z,0
2017-01-27T03:48:13.139Z,0
2017-01-27T03:49:18.327Z,0
2017-01-27T03:50:22.619Z,0
2017-01-27T03:51:27.821Z,0
2017-01-27T03:52:32.990Z,0
2017-01-27T03:53:39.145Z,0
2017-01-27T03:54:44.350Z,0
2017-01-27T03:55:49.625Z,0
2017-01-27T03:56:53.847Z,0
2017-01-27T03:57:59.077Z,0
2017-01-27T03:59:04.313Z,0
2017-01-27T04:00:10.472Z,0
2017-01-27T04:01:15.708Z,0
2017-01-27T04:02:21.825Z,0
2017-01-27T04:03:26.017Z,0
2017-01-27T04:04:32.174Z,0
2017-01-27T04:05:38.340Z,0
2017-01-27T04:06:44.504Z,0
2017-01-27T04:08:56.844Z,0
2017-01-27T04:10:02.043Z,0
2017-01-27T04:11:05.273Z,0
2017-01-27T04:12:10.533Z,0
2017-01-27T04:13:14.729Z,0
2017-01-27T04:14:20.978Z,0
2017-01-27T04:15:25.148Z,0
2017-01-27T04:16:31.326Z,0
2017-01-27T04:17:36.515Z,0
2017-01-27T04:18:40.721Z,0
2017-01-27T04:19:45.921Z,0
2017-01-27T04:20:50.141Z,0
2017-01-27T04:21:55.335Z,0
2017-01-27T04:23:00.530Z,0
2017-01-27T04:24:06.690Z,0
2017-01-27T04:25:12.869Z,0
2017-01-27T04:26:18.064Z,0
2017-01-27T04:27:24.285Z,0
2017-01-27T04:28:30.430Z,0
2017-01-27T04:29:35.596Z,0
2017-01-27T04:30:40.780Z,0
2017-01-27T04:31:46.985Z,0
2017-01-27T04:32:53.135Z,0
2017-01-27T04:33:58.333Z,0
2017-01-27T04:35:03.652Z,0
2017-01-27T04:36:08.732Z,0
2017-01-27T04:37:14.894Z,0
2017-01-27T04:38:21.106Z,0
2017-01-27T04:39:27.264Z,0
2017-01-27T04:40:32.467Z,0
2017-01-27T04:41:37.666Z,0
2017-01-27T04:42:41.899Z,0
2017-01-27T04:43:47.100Z,0
2017-01-27T04:44:53.270Z,0
2017-01-27T04:45:58.483Z,0
2017-01-27T04:47:03.654Z,0
2017-01-27T04:48:08.817Z,0
2017-01-27T04:49:14.981Z,0
2017-01-27T04:50:19.223Z,0
2017-01-27T04:51:25.378Z,0
2017-01-27T04:52:29.618Z,0
2017-01-27T04:53:34.825Z,0
2017-01-27T04:54:39.050Z,0
2017-01-27T04:55:44.312Z,0
2017-01-27T04:56:49.473Z,0
2017-01-27T04:57:54.687Z,0
2017-01-27T04:58:59.913Z,0
2017-01-27T05:00:05.118Z,0
2017-01-27T05:01:10.321Z,0
2017-01-27T05:02:15.510Z,0
2017-01-27T05:03:21.675Z,0
2017-01-27T05:04:27.852Z,0
2017-01-27T05:05:32.078Z,0
2017-01-27T05:06:38.237Z,0
2017-01-27T05:07:43.428Z,0
2017-01-27T05:08:49.606Z,0
2017-01-27T05:09:55.767Z,0
2017-01-27T05:11:00.962Z,0
2017-01-27T05:12:07.116Z,0
2017-01-27T05:13:12.342Z,0
2017-01-27T05:14:18.500Z,0
2017-01-27T05:15:23.700Z,0
2017-01-27T05:16:27.921Z,0
2017-01-27T05:17:34.094Z,0
2017-01-27T05:18:39.259Z,0
2017-01-27T05:19:44.453Z,0
2017-01-27T05:20:50.613Z,0
2017-01-27T05:21:56.789Z,0
2017-01-27T05:23:00.985Z,0
2017-01-27T05:24:06.146Z,0
2017-01-27T05:25:11.370Z,0
2017-01-27T05:26:15.574Z,0
2017-01-27T05:27:21.743Z,0
2017-01-27T05:28:27.898Z,0
2017-01-27T05:29:33.090Z,0
2017-01-27T05:30:37.321Z,0
2017-01-27T05:31:43.480Z,0
2017-01-27T05:32:48.679Z,0
2017-01-27T05:33:54.888Z,0
2017-01-27T05:35:01.058Z,0
2017-01-27T05:36:06.247Z,0
2017-01-27T05:37:12.406Z,0
2017-01-27T05:38:18.575Z,0
2017-01-27T05:39:24.732Z,0
2017-01-27T05:40:29.922Z,0
2017-01-27T05:41:34.120Z,0
2017-01-27T05:42:39.316Z,0
2017-01-27T05:43:45.467Z,0
2017-01-27T05:44:51.689Z,0
2017-01-27T05:45:57.809Z,0
2017-01-27T05:47:02.038Z,0
2017-01-27T05:48:07.244Z,0
2017-01-27T05:49:11.473Z,0
2017-01-27T05:50:17.632Z,0
2017-01-27T05:51:23.872Z,0
2017-01-27T05:52:29.070Z,0
2017-01-27T05:53:35.259Z,0
2017-01-27T05:54:41.399Z,0
2017-01-27T05:55:47.565Z,0
2017-01-27T05:56:52.791Z,0
2017-01-27T05:57:57.967Z,0
2017-01-27T05:59:04.122Z,0
2017-01-27T06:00:09.316Z,0
2017-01-27T06:01:15.481Z,0
2017-01-27T06:02:20.807Z,0
2017-01-27T06:03:25.052Z,0
2017-01-27T06:04:30.251Z,0
2017-01-27T06:05:35.453Z,0
2017-01-27T06:06:41.611Z,0
2017-01-27T06:07:47.771Z,0
2017-01-27T06:08:52.019Z,0
2017-01-27T06:09:57.210Z,0
2017-01-27T06:11:03.373Z,0
2017-01-27T06:12:08.579Z,0
2017-01-27T06:13:14.744Z,0
2017-01-27T06:14:20.886Z,0
2017-01-27T06:15:27.056Z,0
2017-01-27T06:16:32.252Z,0
2017-01-27T06:17:37.453Z,0
2017-01-27T06:18:43.607Z,0
2017-01-27T06:19:48.815Z,0
2017-01-27T06:20:54.964Z,0
2017-01-27T06:22:00.180Z,0
2017-01-27T06:23:06.347Z,0
2017-01-27T06:24:12.544Z,0
2017-01-27T06:25:17.694Z,0
2017-01-27T06:26:23.847Z,0
2017-01-27T06:27:30.014Z,0
2017-01-27T06:28:36.186Z,0
2017-01-27T06:29:42.351Z,0
2017-01-27T06:30:47.553Z,0
2017-01-27T06:31:52.741Z,0
2017-01-27T06:32:56.971Z,0
2017-01-27T06:34:03.138Z,0
2017-01-27T06:35:07.329Z,0
2017-01-27T06:36:13.487Z,0
2017-01-27T06:37:19.648Z,4
2017-01-27T06:38:24.846Z,0
2017-01-27T06:39:30.005Z,4
2017-01-27T06:40:35.213Z,0
2017-01-27T06:41:40.420Z,4
2017-01-27T06:42:46.584Z,4
2017-01-27T06:43:51.927Z,4
2017-01-27T06:44:55.194Z,4
2017-01-27T06:46:01.436Z,4
2017-01-27T06:47:06.642Z,8
2017-01-27T06:48:11.874Z,8
2017-01-27T06:49:17.982Z,12
2017-01-27T06:50:22.209Z,12
2017-01-27T06:51:27.408Z,12
2017-01-27T06:52:32.661Z,16
2017-01-27T06:53:38.860Z,20
2017-01-27T06:54:44.990Z,24
2017-01-27T06:55:51.159Z,28
2017-01-27T06:56:57.324Z,36
2017-01-27T06:58:03.494Z,40
2017-01-27T06:59:09.660Z,48
2017-01-27T07:00:15.817Z,56
2017-01-27T07:01:21.988Z,64
2017-01-27T07:02:28.156Z,76
2017-01-27T07:03:33.354Z,88
2017-01-27T07:04:37.623Z,100
2017-01-27T07:05:42.815Z,112
2017-01-27T07:06:48.008Z,128
2017-01-27T07:07:54.189Z,140
2017-01-27T07:08:59.382Z,156
2017-01-27T07:10:04.583Z,176
2017-01-27T07:11:09.800Z,192
2017-01-27T07:12:15.086Z,212
2017-01-27T07:13:20.265Z,228
2017-01-27T07:14:24.514Z,248
2017-01-27T07:15:30.669Z,264
2017-01-27T07:16:35.871Z,288
2017-01-27T07:17:41.079Z,308
2017-01-27T07:18:47.248Z,340
2017-01-27T07:19:53.415Z,368
2017-01-27T07:20:59.635Z,404
2017-01-27T07:22:04.823Z,440
2017-01-27T07:23:10.057Z,480
2017-01-27T07:24:15.211Z,520
2017-01-27T07:25:19.514Z,564
2017-01-27T07:26:25.696Z,616
2017-01-27T07:27:30.888Z,664
2017-01-27T07:28:36.111Z,720
2017-01-27T07:29:42.233Z,776
2017-01-27T07:30:47.423Z,836
2017-01-27T07:31:53.631Z,896
2017-01-27T07:32:58.942Z,952
2017-01-27T07:34:04.160Z,1016
2017-01-27T07:35:09.357Z,1076
2017-01-27T07:36:13.544Z,1136
2017-01-27T07:37:18.733Z,1196
2017-01-27T07:38:24.903Z,1260
2017-01-27T07:39:31.067Z,1384
2017-01-27T07:40:36.271Z,1440
2017-01-27T07:41:41.470Z,1508
2017-01-27T07:42:46.790Z,1572
2017-01-27T07:43:53.055Z,1636
2017-01-27T07:44:58.146Z,1708
2017-01-27T07:46:03.389Z,1772
2017-01-27T07:47:09.664Z,1848
2017-01-27T07:48:13.929Z,1932
2017-01-27T07:49:20.064Z,2024
2017-01-27T07:50:26.234Z,2116
2017-01-27T07:51:29.464Z,2216
2017-01-27T07:52:34.651Z,2272
2017-01-27T07:53:39.856Z,2304
2017-01-27T07:54:46.018Z,2352
2017-01-27T07:55:51.250Z,2428
2017-01-27T07:56:55.436Z,2544
2017-01-27T07:58:01.599Z,2648
2017-01-27T07:59:06.794Z,2732
2017-01-27T08:00:12.022Z,2776
2017-01-27T08:01:17.212Z,2832
2017-01-27T08:02:22.405Z,2916
2017-01-27T08:03:26.656Z,2876
2017-01-27T08:04:31.839Z,3152
2017-01-27T08:05:36.104Z,3364
2017-01-27T08:06:42.263Z,3592
2017-01-27T08:07:48.429Z,3768
2017-01-27T08:08:52.676Z,3912
2017-01-27T08:09:58.854Z,4216
2017-01-27T08:11:04.985Z,4612
2017-01-27T08:12:09.177Z,4608
2017-01-27T08:13:15.347Z,4568
2017-01-27T08:14:20.551Z,4612
2017-01-27T08:15:25.714Z,4416
2017-01-27T08:16:30.917Z,4240
2017-01-27T08:17:36.112Z,4232
2017-01-27T08:18:42.278Z,4384
2017-01-27T08:19:48.454Z,4512
2017-01-27T08:20:54.622Z,4580
2017-01-27T08:21:59.819Z,4776
2017-01-27T08:23:05.996Z,4904
2017-01-27T08:24:12.162Z,5156
2017-01-27T08:25:17.369Z,5048
2017-01-27T08:26:23.544Z,4960
2017-01-27T08:27:28.752Z,4920
2017-01-27T08:28:33.002Z,4992
2017-01-27T08:29:39.163Z,5168
2017-01-27T08:30:44.324Z,5012
2017-01-27T08:31:49.550Z,4884
2017-01-27T08:32:54.689Z,4768
2017-01-27T08:34:00.872Z,4824
2017-01-27T08:35:06.087Z,4912
2017-01-27T08:36:11.291Z,5076
2017-01-27T08:37:16.497Z,5288
2017-01-27T08:38:21.666Z,5652
2017-01-27T08:39:26.870Z,5776
2017-01-27T08:41:39.190Z,5512
2017-01-27T08:42:45.393Z,5556
2017-01-27T08:43:49.625Z,5888
2017-01-27T08:44:55.808Z,6356
2017-01-27T08:46:01.012Z,6688
2017-01-27T08:47:06.202Z,6996
2017-01-27T08:48:11.551Z,7024
2017-01-27T08:49:16.758Z,6464
2017-01-27T08:50:21.958Z,5996
2017-01-27T08:51:26.198Z,5944
2017-01-27T08:52:31.398Z,6176
2017-01-27T08:53:37.561Z,6528
2017-01-27T08:54:43.763Z,6556
2017-01-27T08:55:49.899Z,6532
2017-01-27T08:56:54.126Z,6040
2017-01-27T08:58:00.296Z,6004
2017-01-27T08:59:05.491Z,6032
2017-01-27T09:00:11.659Z,6152
2017-01-27T09:01:17.826Z,6272
2017-01-27T09:02:22.075Z,6748
2017-01-27T09:03:28.253Z,6648
2017-01-27T09:04:34.420Z,6980
2017-01-27T09:05:40.588Z,7480
2017-01-27T09:06:46.808Z,7516
2017-01-27T09:07:52.969Z,7576
2017-01-27T09:08:59.133Z,7768
2017-01-27T09:10:05.340Z,7876
2017-01-27T09:11:10.539Z,8096
2017-01-27T09:12:16.713Z,8020
2017-01-27T09:13:19.979Z,8120
2017-01-27T09:14:25.168Z,7936
2017-01-27T09:15:31.333Z,8160
2017-01-27T09:16:36.540Z,8024
2017-01-27T09:17:41.801Z,8124
2017-01-27T09:18:48.027Z,8392
2017-01-27T09:19:53.217Z,8796
2017-01-27T09:20:56.546Z,9028
2017-01-27T09:22:00.765Z,8796
2017-01-27T09:23:06.944Z,8540
2017-01-27T09:24:12.140Z,8264
2017-01-27T09:25:17.329Z,8276
2017-01-27T09:26:23.499Z,8440
2017-01-27T09:27:28.710Z,8512
2017-01-27T09:28:32.962Z,8612
2017-01-27T09:29:39.137Z,8216
2017-01-27T09:30:44.367Z,8560
2017-01-27T09:31:50.534Z,8240
2017-01-27T09:32:55.713Z,8464
2017-01-27T09:34:01.897Z,8488
2017-01-27T09:35:07.099Z,8472
2017-01-27T09:36:13.268Z,8724
2017-01-27T09:37:18.468Z,8620
2017-01-27T09:38:21.716Z,8568
2017-01-27T09:39:24.988Z,8480
2017-01-27T09:40:31.196Z,8376
2017-01-27T09:41:36.390Z,8880
2017-01-27T09:42:42.568Z,9228
2017-01-27T09:43:46.777Z,9000
2017-01-27T09:44:51.980Z,8968
2017-01-27T09:45:56.186Z,9176
2017-01-27T09:47:01.394Z,8952
2017-01-27T09:48:07.556Z,9168
2017-01-27T09:49:13.796Z,9744
2017-01-27T09:50:19.002Z,9564
2017-01-27T09:51:24.198Z,9808
2017-01-27T09:52:29.396Z,9256
2017-01-27T09:53:35.558Z,8104
2017-01-27T09:54:41.726Z,8020
2017-01-27T09:55:45.983Z,8772
2017-01-27T09:56:52.160Z,10432
2017-01-27T09:57:57.355Z,11848
2017-01-27T09:59:03.521Z,10868
2017-01-27T10:00:09.681Z,10184
2017-01-27T10:01:13.956Z,10888
2017-01-27T10:02:19.132Z,11328
2017-01-27T10:03:24.331Z,11732
2017-01-27T10:04:27.679Z,12576
2017-01-27T10:05:32.886Z,12412
2017-01-27T10:06:37.197Z,13536
2017-01-27T10:07:41.376Z,13752
2017-01-27T10:08:47.565Z,13080
2017-01-27T10:09:53.723Z,12840
2017-01-27T10:10:58.929Z,14112
2017-01-27T10:12:05.137Z,13252
2017-01-27T10:13:11.450Z,12340
2017-01-27T10:14:16.658Z,11632
2017-01-27T10:15:22.915Z,11080
2017-01-27T10:16:29.086Z,10620
2017-01-27T10:17:35.272Z,10104
2017-01-27T10:18:39.479Z,10752
2017-01-27T10:19:45.645Z,11448
2017-01-27T10:20:50.867Z,11912
2017-01-27T10:21:56.064Z,11944
2017-01-27T10:23:01.264Z,13692
2017-01-27T10:24:05.560Z,11272
2017-01-27T10:25:11.720Z,9704
2017-01-27T10:26:17.897Z,10628
2017-01-27T10:27:24.086Z,13200
2017-01-27T10:28:30.261Z,18400
2017-01-27T10:29:36.425Z,9852
2017-01-27T10:30:42.637Z,10132
2017-01-27T10:31:47.812Z,10728
2017-01-27T10:32:53.075Z,10672
2017-01-27T10:33:58.188Z,14220
2017-01-27T10:35:03.428Z,11556
2017-01-27T10:36:09.608Z,9976
2017-01-27T10:37:11.871Z,9632
2017-01-27T10:38:17.083Z,9268
2017-01-27T10:39:22.285Z,9504
2017-01-27T10:40:27.481Z,10252
2017-01-27T10:41:33.655Z,11020
2017-01-27T10:42:38.826Z,14372
2017-01-27T10:43:45.111Z,16576
2017-01-27T10:44:49.340Z,18080
2017-01-27T10:45:54.551Z,17312
2017-01-27T10:46:59.754Z,16160
2017-01-27T10:48:03.959Z,16416
2017-01-27T10:49:09.173Z,15116
2017-01-27T10:50:13.374Z,15776
2017-01-27T10:51:18.610Z,15904
2017-01-27T10:52:22.877Z,16032
2017-01-27T10:53:28.040Z,16352
2017-01-27T10:54:34.212Z,16768
2017-01-27T10:55:39.410Z,16064
2017-01-27T10:56:42.697Z,15460
2017-01-27T10:57:47.906Z,15968
2017-01-27T10:58:53.168Z,17152
2017-01-27T10:59:59.339Z,16768
2017-01-27T11:01:05.514Z,16864
2017-01-27T11:02:09.780Z,17120
2017-01-27T11:03:15.944Z,17120
2017-01-27T11:04:20.196Z,13212
2017-01-27T11:05:25.411Z,9940
2017-01-27T11:06:31.611Z,8396
2017-01-27T11:07:37.751Z,7976
2017-01-27T11:08:42.951Z,7700
2017-01-27T11:09:49.123Z,7516
2017-01-27T11:10:54.335Z,7388
2017-01-27T11:12:00.505Z,7432
2017-01-27T11:13:06.686Z,7336
2017-01-27T11:14:11.856Z,8672
2017-01-27T11:15:18.018Z,10760
2017-01-27T11:16:22.261Z,8152
2017-01-27T11:17:25.447Z,7268
2017-01-27T11:18:31.624Z,7060
2017-01-27T11:19:36.839Z,6948
2017-01-27T11:20:43.055Z,6944
2017-01-27T11:21:49.186Z,6996
2017-01-27T11:22:55.412Z,7016
2017-01-27T11:24:01.595Z,7004
2017-01-27T11:25:06.793Z,6948
2017-01-27T11:26:11.997Z,7088
2017-01-27T11:27:18.166Z,7276
2017-01-27T11:28:23.373Z,7344
2017-01-27T11:29:28.584Z,7412
2017-01-27T11:30:32.824Z,7464
2017-01-27T11:31:38.986Z,7504
2017-01-27T11:32:44.189Z,7436
2017-01-27T11:33:49.398Z,7372
2017-01-27T11:34:55.564Z,7316
2017-01-27T11:35:59.799Z,7244
2017-01-27T11:37:04.008Z,7116
2017-01-27T11:38:10.253Z,6960
2017-01-27T11:39:15.455Z,6788
2017-01-27T11:40:21.633Z,6660
2017-01-27T11:41:25.887Z,6604
2017-01-27T11:42:32.068Z,6540
2017-01-27T11:43:37.259Z,6488
2017-01-27T11:44:42.462Z,6452
2017-01-27T11:45:48.624Z,6492
2017-01-27T11:46:53.837Z,6536
2017-01-27T11:47:59.085Z,6564
2017-01-27T11:49:05.273Z,6528
2017-01-27T11:50:09.483Z,6588
2017-01-27T11:51:13.715Z,6692
2017-01-27T11:52:18.921Z,6792
2017-01-27T11:53:24.120Z,6860
2017-01-27T11:54:30.295Z,6960
2017-01-27T11:55:35.504Z,7068
2017-01-27T11:56:40.699Z,7156
2017-01-27T11:57:46.861Z,7252
2017-01-27T11:58:53.034Z,7292
2017-01-27T11:59:59.266Z,7252
2017-01-27T12:01:05.426Z,7228
2017-01-27T12:02:11.591Z,7160
2017-01-27T12:03:15.800Z,7144
2017-01-27T12:04:21.972Z,7092
2017-01-27T12:05:27.177Z,7044
2017-01-27T12:06:32.392Z,7024
2017-01-27T12:07:38.575Z,7044
2017-01-27T12:08:44.738Z,7008
2017-01-27T12:09:50.919Z,6908
2017-01-27T12:10:57.099Z,6844
2017-01-27T12:12:02.310Z,6752
2017-01-27T12:13:07.509Z,6656
2017-01-27T12:14:13.684Z,6608
2017-01-27T12:15:19.867Z,6536
2017-01-27T12:16:25.074Z,6452
2017-01-27T12:17:30.314Z,6344
2017-01-27T12:18:36.440Z,6232
2017-01-27T12:19:41.642Z,6104
2017-01-27T12:20:46.846Z,5940
2017-01-27T12:21:52.044Z,5824
2017-01-27T12:22:57.251Z,5692
2017-01-27T12:24:03.410Z,5568
2017-01-27T12:25:07.619Z,5464
2017-01-27T12:26:13.784Z,5360
2017-01-27T12:27:19.952Z,5248
2017-01-27T12:28:26.133Z,5152
2017-01-27T12:29:30.432Z,5084
2017-01-27T12:30:34.660Z,5032
2017-01-27T12:31:39.896Z,4992
2017-01-27T12:32:46.021Z,4984
2017-01-27T12:33:51.228Z,5012
2017-01-27T12:34:57.462Z,5016
2017-01-27T12:36:02.754Z,4988
2017-01-27T12:37:07.940Z,4964
2017-01-27T12:38:12.242Z,4964
2017-01-27T12:39:17.480Z,5024
2017-01-27T12:40:23.620Z,5064
2017-01-27T12:41:28.809Z,5108
2017-01-27T12:42:34.073Z,5140
2017-01-27T12:43:39.336Z,5184
2017-01-27T12:44:44.511Z,5232
2017-01-27T12:45:50.694Z,5264
2017-01-27T12:46:56.882Z,5248
2017-01-27T12:48:02.092Z,5244
2017-01-27T12:49:06.327Z,5212
2017-01-27T12:50:10.565Z,5188
2017-01-27T12:51:16.735Z,5164
2017-01-27T12:52:22.901Z,5116
2017-01-27T12:53:29.118Z,5056
2017-01-27T12:54:35.263Z,5000
2017-01-27T12:55:41.429Z,4932
2017-01-27T12:56:46.627Z,4868
2017-01-27T12:57:51.834Z,4800
2017-01-27T12:58:58.001Z,4724
2017-01-27T13:00:03.216Z,4656
2017-01-27T13:01:08.359Z,4580
2017-01-27T13:02:13.574Z,4504
2017-01-27T13:03:18.793Z,4412
2017-01-27T13:04:23.992Z,4304
2017-01-27T13:05:29.182Z,4180
2017-01-27T13:06:35.366Z,4056
2017-01-27T13:07:41.529Z,3952
2017-01-27T13:08:46.739Z,3868
2017-01-27T13:09:52.908Z,3784
2017-01-27T13:10:58.124Z,3712
2017-01-27T13:12:02.353Z,3656
2017-01-27T13:13:07.539Z,3608
2017-01-27T13:14:11.779Z,3576
2017-01-27T13:15:16.994Z,3556
2017-01-27T13:16:23.154Z,3536
2017-01-27T13:17:29.330Z,3504
2017-01-27T13:18:35.504Z,3476
2017-01-27T13:19:41.716Z,3436
2017-01-27T13:20:47.866Z,3380
2017-01-27T13:21:51.169Z,3328
2017-01-27T13:22:56.374Z,3272
2017-01-27T13:24:01.614Z,3216
2017-01-27T13:25:07.769Z,3176
2017-01-27T13:26:12.965Z,3128
2017-01-27T13:27:19.136Z,3092
2017-01-27T13:28:25.331Z,3068
2017-01-27T13:29:30.667Z,3048
2017-01-27T13:30:36.857Z,3048
2017-01-27T13:31:42.064Z,3052
2017-01-27T13:32:48.222Z,3068
2017-01-27T13:33:52.454Z,3076
2017-01-27T13:34:57.664Z,3084
2017-01-27T13:36:02.866Z,3088
2017-01-27T13:37:09.041Z,3092
2017-01-27T13:38:14.264Z,3092
2017-01-27T13:39:19.464Z,3092
2017-01-27T13:40:25.648Z,3092
2017-01-27T13:41:31.801Z,3080
2017-01-27T13:42:38.002Z,3056
2017-01-27T13:43:43.247Z,3020
2017-01-27T13:44:49.417Z,2976
2017-01-27T13:45:54.623Z,2936
2017-01-27T13:47:00.801Z,2888
2017-01-27T13:48:07.013Z,2844
2017-01-27T13:49:13.216Z,2804
2017-01-27T13:50:19.435Z,2772
2017-01-27T13:51:25.613Z,2740
2017-01-27T13:52:30.812Z,2716
2017-01-27T13:53:36.013Z,2696
2017-01-27T13:54:42.192Z,2680
2017-01-27T13:55:48.416Z,2676
2017-01-27T13:56:54.584Z,2676
2017-01-27T13:57:59.797Z,2680
2017-01-27T13:59:05.004Z,2688
2017-01-27T14:00:11.180Z,2700
2017-01-27T14:01:17.450Z,2716
2017-01-27T14:03:28.850Z,2760
2017-01-27T14:04:33.147Z,2796
2017-01-27T14:05:39.320Z,2836
2017-01-27T14:06:45.486Z,2876
2017-01-27T14:07:50.689Z,2924
2017-01-27T14:08:56.965Z,2956
2017-01-27T14:11:08.336Z,3036
2017-01-27T14:12:14.534Z,3080
2017-01-27T14:13:18.741Z,3112
2017-01-27T14:14:24.915Z,3136
2017-01-27T14:15:30.096Z,3140
2017-01-27T14:16:34.307Z,3132
2017-01-27T14:17:36.550Z,3112
2017-01-27T14:18:42.731Z,3068
2017-01-27T14:19:48.900Z,3016
2017-01-27T14:20:53.133Z,2956
2017-01-27T14:21:59.322Z,2888
2017-01-27T14:23:04.537Z,2828
2017-01-27T14:24:09.739Z,2768
2017-01-27T14:25:14.913Z,2720
2017-01-27T14:26:20.119Z,2672
2017-01-27T14:27:25.329Z,2628
2017-01-27T14:28:31.518Z,2584
2017-01-27T14:29:37.683Z,2540
2017-01-27T14:30:43.860Z,2496
2017-01-27T14:31:47.110Z,2460
2017-01-27T14:32:52.331Z,2424
2017-01-27T14:33:58.511Z,2400
2017-01-27T14:35:04.701Z,2372
2017-01-27T14:36:10.909Z,2336
2017-01-27T14:37:15.137Z,2296
2017-01-27T14:38:21.314Z,2260
2017-01-27T14:39:27.515Z,2244
2017-01-27T14:40:32.688Z,2236
2017-01-27T14:41:37.912Z,2252
2017-01-27T14:42:43.100Z,2288
2017-01-27T14:43:48.275Z,2336
2017-01-27T14:44:53.452Z,2380
2017-01-27T14:45:59.617Z,2404
2017-01-27T14:47:04.817Z,2396
2017-01-27T14:48:10.027Z,2364
2017-01-27T14:49:16.201Z,2312
2017-01-27T14:50:20.415Z,2248
2017-01-27T14:51:26.590Z,2196
2017-01-27T14:52:32.869Z,2160
2017-01-27T14:53:38.062Z,2164
2017-01-27T14:54:44.234Z,2188
2017-01-27T14:55:49.431Z,2224
2017-01-27T14:56:55.601Z,2260
2017-01-27T14:58:01.775Z,2296
2017-01-27T14:59:07.947Z,2316
2017-01-27T15:00:14.123Z,2316
2017-01-27T15:01:19.340Z,2292
2017-01-27T15:02:24.805Z,2252
2017-01-27T15:03:29.917Z,2184
2017-01-27T15:04:35.137Z,2104
2017-01-27T15:05:40.323Z,2020
2017-01-27T15:06:46.602Z,1944
2017-01-27T15:07:51.803Z,1876
2017-01-27T15:08:57.972Z,1816
2017-01-27T15:10:04.145Z,1768
2017-01-27T15:11:09.324Z,1728
2017-01-27T15:12:14.538Z,1692
2017-01-27T15:13:20.715Z,1664
2017-01-27T15:14:26.878Z,1632
2017-01-27T15:15:32.074Z,1608